.
WxDataArchive / Data Records for 2009-03-20
2009-03-19 March 2009 2009-03-21

Data Records for Friday, 20 March 2009

Time	Temp	Chill	HIndex	Humid	Dewpt	 Wind 	HiWind	WindDir	Rain 	Barom 
-----	----	-----	------	-----	-----	------	------	-------	-----	----- 
00:00	27.5	27.5	27.5	59	15.1	0	1	315	0.00	30.407 
00:05	27.5	27.5	27.5	59	15.1	0	2	225	0.00	30.404 
00:10	27.3	27.3	27.3	59	14.9	0	1	225	0.00	30.405 
00:15	27.3	27.3	27.3	59	14.9	0	1	225	0.00	30.407 
00:20	27.3	27.3	27.3	59	14.9	1	3	292	0.00	30.407 
00:25	27.3	27.3	27.3	59	14.9	0	2	292	0.00	30.407 
00:30	27.2	27.2	27.2	59	14.8	0	1	315	0.00	30.406 
00:35	27.2	27.2	27.2	59	14.8	0	2	315	0.00	30.404 
00:40	27.0	27.0	27.0	60	15.0	0	3	315	0.00	30.406 
00:45	27.0	27.0	27.0	60	15.0	0	3	270	0.00	30.405 
00:50	27.0	27.0	27.0	60	15.0	0	2	0	0.00	30.405 
00:55	26.9	26.9	26.9	60	14.9	0	1	0	0.00	30.405 
01:00	26.7	26.7	26.7	61	15.1	0	2	0	0.00	30.405 
01:05	26.7	26.7	26.7	61	15.1	0	1	270	0.00	30.403 
01:10	26.6	26.6	26.6	61	15.0	0	1	270	0.00	30.402 
01:15	26.6	26.6	26.6	61	15.0	0	1	270	0.00	30.402 
01:20	26.4	26.4	26.4	62	15.2	0	2	270	0.00	30.402 
01:25	26.3	26.3	26.3	62	15.1	0	1	0	0.00	30.404 
01:30	26.3	26.3	26.3	62	15.1	0	2	0	0.00	30.404 
01:35	26.1	26.1	26.1	62	14.9	0	1	0	0.00	30.405 
01:40	26.1	26.1	26.1	63	15.3	0	1	0	0.00	30.407 
01:45	26.0	26.0	26.0	63	15.2	0	1	0	0.00	30.408 
01:50	25.8	25.8	25.8	63	15.0	0	1	0	0.00	30.408 
01:55	25.8	25.8	25.8	64	15.3	0	1	0	0.00	30.409 
02:00	25.8	25.8	25.8	64	15.3	0	2	0	0.00	30.412 
02:05	25.8	25.8	25.8	64	15.3	0	3	0	0.00	30.414 
02:10	25.8	25.8	25.8	64	15.3	0	2	338	0.00	30.418 
02:15	26.0	26.0	26.0	65	15.9	0	1	338	0.00	30.421 
02:20	25.8	25.8	25.8	65	15.7	0	1	338	0.00	30.422 
02:25	25.7	25.7	25.7	66	15.9	0	1	338	0.00	30.423 
02:30	25.6	25.6	25.6	66	15.8	0	1	338	0.00	30.424 
02:35	25.6	25.6	25.6	67	16.2	0	1	338	0.00	30.424 
02:40	25.4	25.4	25.4	67	16.0	0	1	338	0.00	30.424 
02:45	25.3	25.3	25.3	68	16.2	0	1	338	0.00	30.424 
02:50	25.3	25.3	25.3	68	16.2	0	0	---	0.00	30.425 
02:55	25.1	25.1	25.1	68	16.1	0	1	338	0.00	30.427 
03:00	25.0	25.0	25.0	69	16.3	0	0	---	0.00	30.429 
03:05	24.8	24.8	24.8	69	16.1	0	1	338	0.00	30.430 
03:10	24.8	24.8	24.8	71	16.8	0	1	338	0.00	30.429 
03:15	24.8	24.8	24.8	71	16.8	0	3	135	0.00	30.430 
03:20	24.8	24.8	24.8	71	16.8	0	3	68	0.00	30.430 
03:25	25.0	25.0	25.0	71	16.9	0	2	45	0.00	30.432 
03:30	25.1	25.1	25.1	71	17.0	0	2	68	0.00	30.433 
03:35	25.1	25.1	25.1	71	17.0	0	1	68	0.00	30.433 
03:40	25.0	25.0	25.0	71	16.9	0	2	135	0.00	30.430 
03:45	25.0	25.0	25.0	71	16.9	0	3	90	0.00	30.434 
03:50	25.0	25.0	25.0	71	16.9	0	2	68	0.00	30.436 
03:55	24.8	24.8	24.8	71	16.8	0	1	45	0.00	30.439 
04:00	24.8	24.8	24.8	71	16.8	0	2	112	0.00	30.440 
04:05	24.7	24.7	24.7	71	16.7	0	1	112	0.00	30.448 
04:10	24.5	24.5	24.5	71	16.5	0	2	112	0.00	30.447 
04:15	24.4	24.4	24.4	71	16.4	0	2	112	0.00	30.447 
04:20	24.4	24.4	24.4	71	16.4	0	2	112	0.00	30.446 
04:25	24.2	24.2	24.2	71	16.2	0	2	112	0.00	30.446 
04:30	24.2	24.2	24.2	71	16.2	0	1	112	0.00	30.447 
04:35	24.1	24.1	24.1	72	16.4	0	1	90	0.00	30.448 
04:40	24.1	24.1	24.1	72	16.4	0	1	90	0.00	30.449 
04:45	23.9	23.9	23.9	72	16.2	0	2	90	0.00	30.449 
04:50	23.8	23.8	23.8	72	16.1	0	1	90	0.00	30.452 
04:55	23.8	23.8	23.8	71	15.8	0	3	90	0.00	30.456 
05:00	23.8	23.8	23.8	71	15.8	0	2	68	0.00	30.459 
05:05	23.9	23.9	23.9	71	15.9	0	2	68	0.00	30.463 
05:10	23.8	23.8	23.8	71	15.8	0	2	68	0.00	30.466 
05:15	23.8	23.8	23.8	71	15.8	0	1	68	0.00	30.466 
05:20	23.8	23.8	23.8	70	15.5	0	3	68	0.00	30.468 
05:25	23.8	23.8	23.8	69	15.1	0	2	68	0.00	30.470 
05:30	23.8	23.8	23.8	69	15.1	0	2	68	0.00	30.475 
05:35	23.8	23.8	23.8	69	15.1	0	1	68	0.00	30.478 
05:40	23.6	23.6	23.6	69	14.9	0	1	68	0.00	30.481 
05:45	23.6	23.6	23.6	69	14.9	0	2	68	0.00	30.482 
05:50	23.5	23.5	23.5	69	14.9	0	2	68	0.00	30.483 
05:55	23.5	23.5	23.5	70	15.2	0	1	68	0.00	30.483 
06:00	23.5	23.5	23.5	70	15.2	0	1	68	0.00	30.482 
06:05	23.3	23.3	23.3	70	15.0	0	2	68	0.00	30.486 
06:10	23.3	23.3	23.3	71	15.3	1	4	68	0.00	30.490 
06:15	23.3	23.3	23.3	71	15.3	0	1	90	0.00	30.495 
06:20	23.3	23.3	23.3	72	15.6	0	1	90	0.00	30.494 
06:25	23.2	23.2	23.2	73	15.9	0	2	90	0.00	30.496 
06:30	23.2	23.2	23.2	73	15.9	0	2	90	0.00	30.500 
06:35	23.0	23.0	23.0	73	15.7	0	2	68	0.00	30.501 
06:40	23.0	23.0	23.0	72	15.3	0	4	45	0.00	30.502 
06:45	23.0	23.0	23.0	71	15.0	0	1	45	0.00	30.504 
06:50	23.0	23.0	23.0	71	15.0	0	3	68	0.00	30.508 
06:55	23.0	23.0	23.0	71	15.0	0	4	68	0.00	30.512 
07:00	23.2	23.2	23.2	71	15.2	0	3	68	0.00	30.515 
07:05	23.2	23.2	23.2	71	15.2	0	1	68	0.00	30.518 
07:10	23.3	23.3	23.3	70	15.0	0	3	90	0.00	30.518 
07:15	23.6	23.6	23.6	70	15.3	0	3	90	0.00	30.518 
07:20	23.9	23.9	23.9	69	15.2	1	4	22	0.00	30.518 
07:25	24.4	24.4	24.4	69	15.7	1	3	90	0.00	30.519 
07:30	24.8	24.8	24.8	68	15.8	1	4	90	0.00	30.519 
07:35	25.1	25.1	25.1	67	15.7	1	4	90	0.00	30.522 
07:40	25.4	25.4	25.4	66	15.7	1	5	90	0.00	30.523 
07:45	25.7	25.7	25.7	66	15.9	0	2	90	0.00	30.526 
07:50	25.8	25.8	25.8	65	15.7	1	6	112	0.00	30.528 
07:55	26.0	26.0	26.0	65	15.9	2	5	112	0.00	30.526 
08:00	26.1	26.1	26.1	64	15.6	1	4	68	0.00	30.529 
08:05	26.4	26.4	26.4	65	16.3	1	4	90	0.00	30.530 
08:10	26.6	26.6	26.6	63	15.7	1	5	90	0.00	30.533 
08:15	26.7	26.7	26.7	63	15.8	2	7	112	0.00	30.534 
08:20	26.9	26.9	26.9	62	15.6	2	5	112	0.00	30.534 
08:25	27.0	27.0	27.0	62	15.7	2	6	90	0.00	30.534 
08:30	27.2	27.2	27.2	60	15.2	3	9	112	0.00	30.533 
08:35	27.5	27.5	27.5	60	15.5	3	7	112	0.00	30.534 
08:40	27.6	27.6	27.6	59	15.2	3	9	112	0.00	30.532 
08:45	27.8	27.8	27.8	58	15.0	3	6	112	0.00	30.535 
08:50	27.9	27.9	27.9	57	14.7	2	7	45	0.00	30.535 
08:55	28.2	23.7	28.2	57	14.9	4	10	112	0.00	30.537 
09:00	28.2	22.6	28.2	58	15.3	5	11	112	0.00	30.538 
09:05	28.4	23.9	28.4	56	14.7	4	10	112	0.00	30.539 
09:10	28.8	28.8	28.8	57	15.5	3	9	90	0.00	30.542 
09:15	29.3	29.3	29.3	57	16.0	3	9	112	0.00	30.548 
09:20	29.7	29.7	29.7	58	16.8	2	5	90	0.00	30.545 
09:25	30.0	25.8	30.0	59	17.4	4	9	112	0.00	30.547 
09:30	30.1	30.1	30.1	58	17.1	2	6	90	0.00	30.546 
09:35	30.3	26.1	30.3	56	16.5	4	9	112	0.00	30.547 
09:40	30.1	25.9	30.1	56	16.3	4	10	112	0.00	30.546 
09:45	30.3	26.1	30.3	57	16.9	4	10	90	0.00	30.545 
09:50	30.6	30.6	30.6	58	17.6	3	9	112	0.00	30.545 
09:55	31.3	31.3	31.3	57	17.9	3	5	112	0.00	30.548 
10:00	31.3	27.3	31.3	56	17.4	4	9	112	0.00	30.550 
10:05	31.2	31.2	31.2	57	17.8	3	9	90	0.00	30.549 
10:10	31.0	25.9	31.0	56	17.2	5	9	112	0.00	30.549 
10:15	31.0	26.9	31.0	55	16.8	4	10	112	0.00	30.549 
10:20	31.5	31.5	31.5	57	18.0	2	7	22	0.00	30.549 
10:25	31.8	27.8	31.8	56	17.9	4	11	112	0.00	30.548 
10:30	31.8	27.8	31.8	53	16.6	4	9	90	0.00	30.548 
10:35	32.2	32.2	32.2	54	17.4	3	9	112	0.00	30.548 
10:40	32.5	32.5	32.5	54	17.7	3	7	90	0.00	30.548 
10:45	33.2	33.2	33.2	53	17.9	2	5	112	0.00	30.544 
10:50	33.5	33.5	33.5	50	16.9	2	5	112	0.00	30.544 
10:55	33.5	29.8	33.5	50	16.9	4	7	90	0.00	30.546 
11:00	33.2	33.2	33.2	53	17.9	3	6	45	0.00	30.544 
11:05	33.5	33.5	33.5	54	18.7	2	6	112	0.00	30.546 
11:10	33.5	29.8	33.5	50	16.9	4	9	112	0.00	30.546 
11:15	33.5	33.5	33.5	51	17.3	3	8	90	0.00	30.545 
11:20	34.4	34.4	34.4	54	19.5	1	6	90	0.00	30.545 
11:25	34.9	34.9	34.9	52	19.1	1	5	90	0.00	30.546 
11:30	35.3	35.3	35.3	51	19.0	1	6	90	0.00	30.546 
11:35	35.5	35.5	35.5	49	18.3	2	6	90	0.00	30.543 
11:40	35.5	35.5	35.5	46	16.8	2	10	90	0.00	30.538 
11:45	35.2	35.2	35.2	49	18.0	3	9	90	0.00	30.535 
11:50	35.6	35.6	35.6	50	18.8	1	6	45	0.00	30.538 
11:55	35.8	35.8	35.8	49	18.5	2	9	112	0.00	30.540 
12:00	35.9	35.9	35.9	49	18.6	3	7	112	0.00	30.534 
12:05	35.2	31.8	35.2	48	17.5	4	11	112	0.00	30.539 
12:10	35.0	35.0	35.0	48	17.3	2	7	90	0.00	30.543 
12:15	35.6	35.6	35.6	50	18.8	3	7	112	0.00	30.543 
12:20	36.3	36.3	36.3	47	18.0	2	6	112	0.00	30.545 
12:25	36.6	36.6	36.6	46	17.8	1	5	112	0.00	30.544 
12:30	37.0	37.0	37.0	47	18.7	1	4	45	0.00	30.543 
12:35	37.5	37.5	37.5	47	19.1	1	5	90	0.00	30.542 
12:40	37.5	37.5	37.5	45	18.1	1	4	112	0.00	30.541 
12:45	37.5	37.5	37.5	49	20.1	2	5	112	0.00	30.536 
12:50	37.2	37.2	37.2	48	19.3	3	6	112	0.00	30.536 
12:55	37.5	37.5	37.5	48	19.6	1	4	135	0.00	30.531 
13:00	37.3	37.3	37.3	47	18.9	3	7	112	0.00	30.530 
13:05	37.6	37.6	37.6	48	19.7	3	9	112	0.00	30.530 
13:10	38.0	38.0	38.0	45	18.6	1	6	112	0.00	30.529 
13:15	38.5	38.5	38.5	47	20.0	1	7	112	0.00	30.528 
13:20	38.3	38.3	38.3	44	18.3	2	7	90	0.00	30.527 
13:25	38.3	38.3	38.3	46	19.4	2	6	90	0.00	30.525 
13:30	38.2	38.2	38.2	46	19.3	2	6	112	0.00	30.523 
13:35	38.3	38.3	38.3	46	19.4	1	4	68	0.00	30.523 
13:40	38.6	38.6	38.6	50	21.6	3	6	112	0.00	30.517 
13:45	38.5	38.5	38.5	44	18.5	2	5	112	0.00	30.517 
13:50	38.5	38.5	38.5	47	20.0	2	6	112	0.00	30.519 
13:55	38.5	38.5	38.5	42	17.4	2	10	112	0.00	30.517 
14:00	38.5	38.5	38.5	44	18.5	3	9	112	0.00	30.513 
14:05	38.6	38.6	38.6	43	18.1	2	9	112	0.00	30.510 
14:10	38.9	38.9	38.9	45	19.4	2	7	112	0.00	30.510 
14:15	39.1	39.1	39.1	44	19.0	2	6	90	0.00	30.507 
14:20	39.3	39.3	39.3	44	19.2	1	5	180	0.00	30.508 
14:25	39.3	39.3	39.3	42	18.1	3	7	112	0.00	30.506 
14:30	39.3	39.3	39.3	42	18.1	2	4	112	0.00	30.502 
14:35	39.5	39.5	39.5	46	20.5	1	9	112	0.00	30.501 
14:40	40.1	40.1	40.1	43	19.4	1	3	90	0.00	30.500 
14:45	40.1	40.1	40.1	41	18.3	0	2	90	0.00	30.497 
14:50	40.3	40.3	40.3	40	17.9	2	8	90	0.00	30.497 
14:55	40.2	40.2	40.2	43	19.5	3	7	112	0.00	30.497 
15:00	39.9	39.9	39.9	38	16.4	2	6	112	0.00	30.496 
15:05	40.2	40.2	40.2	40	17.8	2	7	112	0.00	30.496 
15:10	40.3	40.3	40.3	39	17.3	1	3	22	0.00	30.496 
15:15	40.3	40.3	40.3	42	19.1	3	6	90	0.00	30.496 
15:20	40.1	40.1	40.1	39	17.2	2	7	135	0.00	30.496 
15:25	40.5	40.5	40.5	41	18.7	2	6	45	0.00	30.493 
15:30	40.6	40.6	40.6	40	18.2	1	4	112	0.00	30.491 
15:35	40.6	40.6	40.6	39	17.6	2	7	112	0.00	30.490 
15:40	40.8	40.8	40.8	38	17.2	2	6	90	0.00	30.490 
15:45	40.6	40.6	40.6	38	17.0	2	4	112	0.00	30.487 
15:50	40.6	40.6	40.6	41	18.8	1	4	68	0.00	30.490 
15:55	40.9	40.9	40.9	41	19.0	1	3	68	0.00	30.491 
16:00	40.9	40.9	40.9	38	17.3	0	2	68	0.00	30.487 
16:05	40.8	40.8	40.8	35	15.3	0	2	68	0.00	30.486 
16:10	40.8	40.8	40.8	40	18.4	2	5	90	0.00	30.485 
16:15	40.8	40.8	40.8	40	18.4	1	3	45	0.00	30.484 
16:20	40.9	40.9	40.9	39	17.9	0	2	45	0.00	30.483 
16:25	40.9	40.9	40.9	37	16.7	0	2	45	0.00	30.482 
16:30	40.9	40.9	40.9	38	17.3	3	7	112	0.00	30.481 
16:35	40.5	40.5	40.5	36	15.7	2	7	90	0.00	30.481 
16:40	40.3	40.3	40.3	38	16.7	2	5	90	0.00	30.482 
16:45	40.2	40.2	40.2	38	16.6	1	4	90	0.00	30.479 
16:50	40.2	40.2	40.2	39	17.2	3	7	90	0.00	30.477 
16:55	40.2	40.2	40.2	39	17.2	2	5	90	0.00	30.475 
17:00	40.2	40.2	40.2	38	16.6	2	6	112	0.00	30.474 
17:05	40.3	40.3	40.3	37	16.1	2	5	112	0.00	30.476 
17:10	40.2	40.2	40.2	41	18.4	2	6	90	0.00	30.471 
17:15	40.2	40.2	40.2	39	17.2	2	5	90	0.00	30.469 
17:20	40.2	40.2	40.2	39	17.2	1	3	112	0.00	30.470 
17:25	40.1	40.1	40.1	39	17.2	2	7	112	0.00	30.470 
17:30	40.1	40.1	40.1	39	17.2	1	4	112	0.00	30.471 
17:35	40.1	40.1	40.1	39	17.2	2	6	112	0.00	30.470 
17:40	40.1	40.1	40.1	38	16.6	2	6	112	0.00	30.469 
17:45	40.1	40.1	40.1	39	17.2	2	5	90	0.00	30.470 
17:50	39.9	39.9	39.9	39	17.0	1	3	112	0.00	30.469 
17:55	39.8	39.8	39.8	39	16.9	2	5	90	0.00	30.468 
18:00	39.8	39.8	39.8	39	16.9	3	5	90	0.00	30.466 
18:05	39.6	39.6	39.6	38	16.1	1	4	112	0.00	30.468 
18:10	39.5	39.5	39.5	39	16.6	1	2	112	0.00	30.468 
18:15	39.3	39.3	39.3	40	17.0	1	4	90	0.00	30.468 
18:20	39.1	39.1	39.1	40	16.8	1	3	112	0.00	30.468 
18:25	38.9	38.9	38.9	41	17.2	1	3	90	0.00	30.468 
18:30	38.8	38.8	38.8	41	17.1	1	4	90	0.00	30.469 
18:35	38.5	38.5	38.5	42	17.4	1	2	90	0.00	30.468 
18:40	38.3	38.3	38.3	42	17.2	1	3	90	0.00	30.470 
18:45	38.2	38.2	38.2	42	17.2	0	2	90	0.00	30.470 
18:50	37.9	37.9	37.9	43	17.4	0	1	90	0.00	30.469 
18:55	37.8	37.8	37.8	43	17.3	0	2	90	0.00	30.469 
19:00	37.5	37.5	37.5	43	17.1	0	2	90	0.00	30.469 
19:05	37.3	37.3	37.3	44	17.4	0	1	90	0.00	30.467 
19:10	37.0	37.0	37.0	45	17.7	0	1	90	0.00	30.469 
19:15	36.6	36.6	36.6	46	17.8	0	0	---	0.00	30.468 
19:20	36.2	36.2	36.2	47	17.9	0	1	90	0.00	30.468 
19:25	35.9	35.9	35.9	48	18.1	0	0	---	0.00	30.468 
19:30	35.5	35.5	35.5	48	17.8	0	0	---	0.00	30.469 
19:35	34.9	34.9	34.9	49	17.7	0	0	---	0.00	30.470 
19:40	34.4	34.4	34.4	50	17.7	0	0	---	0.00	30.471 
19:45	33.8	33.8	33.8	51	17.6	0	0	---	0.00	30.471 
19:50	33.5	33.5	33.5	52	17.8	0	0	---	0.00	30.471 
19:55	33.2	33.2	33.2	53	17.9	0	0	---	0.00	30.474 
20:00	32.9	32.9	32.9	54	18.1	0	0	---	0.00	30.473 
20:05	32.7	32.7	32.7	54	17.9	0	0	---	0.00	30.472 
20:10	32.4	32.4	32.4	55	18.1	0	0	---	0.00	30.474 
20:15	32.2	32.2	32.2	56	18.3	0	0	---	0.00	30.474 
20:20	31.9	31.9	31.9	57	18.4	0	1	90	0.00	30.473 
20:25	31.6	31.6	31.6	57	18.1	0	0	---	0.00	30.472 
20:30	31.5	31.5	31.5	57	18.0	0	0	---	0.00	30.473 
20:35	31.2	31.2	31.2	58	18.2	0	0	---	0.00	30.475 
20:40	30.9	30.9	30.9	58	17.9	0	0	---	0.00	30.475 
20:45	30.7	30.7	30.7	59	18.1	0	0	---	0.00	30.476 
20:50	30.9	30.9	30.9	59	18.3	0	1	90	0.00	30.473 
20:55	30.9	30.9	30.9	59	18.3	0	1	90	0.00	30.472 
21:00	31.2	31.2	31.2	58	18.2	0	1	90	0.00	30.472 
21:05	31.6	31.6	31.6	57	18.1	0	1	90	0.00	30.468 
21:10	32.1	32.1	32.1	56	18.2	0	2	90	0.00	30.467 
21:15	32.5	32.5	32.5	54	17.7	1	4	90	0.00	30.466 
21:20	32.9	32.9	32.9	53	17.7	2	6	90	0.00	30.463 
21:25	33.2	33.2	33.2	53	17.9	1	4	112	0.00	30.462 
21:30	33.2	33.2	33.2	53	17.9	1	3	112	0.00	30.459 
21:35	33.1	33.1	33.1	52	17.4	1	4	112	0.00	30.454 
21:40	33.1	33.1	33.1	52	17.4	3	5	112	0.00	30.452 
21:45	32.9	32.9	32.9	52	17.2	2	5	90	0.00	30.453 
21:50	32.9	32.9	32.9	52	17.2	2	5	90	0.00	30.451 
21:55	32.8	32.8	32.8	52	17.1	3	5	112	0.00	30.451 
22:00	32.7	32.7	32.7	53	17.5	2	5	90	0.00	30.450 
22:05	32.5	32.5	32.5	53	17.3	2	6	90	0.00	30.449 
22:10	32.4	32.4	32.4	53	17.2	2	5	90	0.00	30.451 
22:15	32.2	32.2	32.2	54	17.4	1	5	112	0.00	30.452 
22:20	31.9	31.9	31.9	55	17.6	0	2	112	0.00	30.452 
22:25	31.6	31.6	31.6	56	17.7	1	3	112	0.00	30.452 
22:30	31.3	31.3	31.3	57	17.9	2	4	90	0.00	30.451 
22:35	31.2	31.2	31.2	57	17.8	1	3	112	0.00	30.451 
22:40	31.2	31.2	31.2	57	17.8	1	4	90	0.00	30.454 
22:45	31.0	31.0	31.0	58	18.0	2	5	112	0.00	30.459 
22:50	30.9	30.9	30.9	58	17.9	1	3	112	0.00	30.456 
22:55	30.7	30.7	30.7	59	18.1	0	1	112	0.00	30.454 
23:00	30.3	30.3	30.3	60	18.1	0	2	112	0.00	30.458 
23:05	30.1	30.1	30.1	61	18.3	0	2	112	0.00	30.453 
23:10	29.8	29.8	29.8	62	18.4	0	1	112	0.00	30.456 
23:15	29.7	29.7	29.7	62	18.3	1	2	112	0.00	30.460 
23:20	29.5	29.5	29.5	63	18.5	1	3	112	0.00	30.456 
23:25	29.4	29.4	29.4	63	18.4	1	3	112	0.00	30.456 
23:30	29.4	29.4	29.4	63	18.4	2	3	112	0.00	30.456 
23:35	29.3	29.3	29.3	63	18.3	2	5	90	0.00	30.456 
23:40	29.3	29.3	29.3	63	18.3	2	5	90	0.00	30.460 
23:45	29.1	29.1	29.1	64	18.5	1	3	90	0.00	30.460 
23:50	29.0	29.0	29.0	64	18.4	1	3	90	0.00	30.460 
23:55	28.8	28.8	28.8	65	18.5	2	4	90	0.00	30.457 

CoCoRaHS
IN-AL-39
A2 Web Hosting
Creative Commons License
GoDaddy
search engine by freefind advanced

loaded 2018-11-15 03:01:42 • last modified 2010-11-18 10:43:29
Privacy PolicyDisclaimer
• wx.awcolley.com is powered by PmWiki v.2002016 •
• all content (unless otherwise noted) © 2018 A W Colley